»·PEaware :: GGMAC KSAN-KLAX

GGMAC :: KSAN-KLAX

FLIGHT INFORMATION

Flight Status: Arrived
Operator: Unknown
More flights by this operator :: More flights under this callsign
Pilot: Michael C. (7614)
Aircraft: Unknown
(DHC8)
More flights by this aircraft type
Origin: KSAN San Diego Intl-Lindbergh
United States
Destination: KLAX Los Angeles Intl
United States
More flights between these airports :: More routes between these airports
Route: +PEBLE6 SLI
File this flight plan on PilotEdge
Remarks:
Altitude:
(Current/Filed)
8,000ft
Speed:
(Current/Filed)
180kts
Departed: 15-Apr-16 01:08 PM
Arrived: 15-Apr-16 01:49 PM
Distance/Time
Traveled:
94nm/0:41
Distance/Time
To Go:
Arrived

Flight Plot

Page will automatically refresh every two minutes.


Map Options




Map Legend


Flown Route
Filed Route
Departure Airport
Arrival Airport
Navaid (VOR, NDB)
Fix

Horizontal Profiles

Position Reports

Time Latitude Longitude Heading Altitude Ground
Speed
15-Apr-16 12:32 32.733127 -117.196785 134 22ft 0kts
15-Apr-16 12:33 32.733127 -117.196785 134 22ft 0kts
15-Apr-16 12:34 32.733127 -117.196785 134 22ft 0kts
15-Apr-16 12:35 32.733127 -117.196785 134 22ft 0kts
15-Apr-16 12:36 32.733127 -117.196785 134 22ft 0kts
15-Apr-16 12:37 32.733127 -117.196785 134 22ft 0kts
15-Apr-16 12:38 32.733127 -117.196785 134 22ft 0kts
15-Apr-16 12:41 32.733127 -117.196785 134 22ft 0kts
15-Apr-16 12:42 32.733127 -117.196785 134 22ft 0kts
15-Apr-16 12:43 32.733127 -117.196785 134 22ft 0kts
15-Apr-16 12:44 32.733127 -117.196785 134 22ft 0kts
15-Apr-16 12:45 32.733127 -117.196785 134 22ft 0kts
15-Apr-16 12:46 32.733127 -117.196785 134 22ft 0kts
15-Apr-16 12:47 32.733127 -117.196785 134 22ft 0kts
15-Apr-16 12:48 32.733127 -117.196785 134 22ft 0kts
15-Apr-16 12:49 32.733127 -117.196785 134 22ft 0kts
15-Apr-16 12:50 32.733129 -117.196040 54 22ft 3kts
15-Apr-16 12:51 32.733599 -117.194597 100 22ft 10kts
15-Apr-16 12:52 32.732746 -117.190663 106 22ft 14kts
15-Apr-16 12:53 32.731519 -117.185648 106 22ft 16kts
15-Apr-16 12:54 32.730240 -117.180288 106 22ft 17kts
15-Apr-16 12:55 32.729453 -117.177071 98 22ft 7kts
15-Apr-16 12:56 32.729504 -117.176727 70 22ft 0kts
15-Apr-16 12:57 32.729504 -117.176727 70 22ft 0kts
15-Apr-16 12:58 32.730257 -117.176082 297 22ft 3kts
15-Apr-16 12:59 32.732639 -117.185876 285 22ft 108kts
15-Apr-16 13:00 32.751490 -117.225138 303 1408ft 168kts
15-Apr-16 13:01 32.780579 -117.273010 303 2756ft 176kts
15-Apr-16 13:02 32.809276 -117.320355 305 4075ft 173kts
15-Apr-16 13:03 32.835273 -117.362791 302 5284ft 170kts
15-Apr-16 13:04 32.862564 -117.408711 304 6596ft 169kts
15-Apr-16 13:05 32.888982 -117.454411 309 7878ft 168kts
15-Apr-16 13:06 32.929593 -117.484097 328 7967ft 174kts
15-Apr-16 13:07 32.967641 -117.517687 312 7972ft 169kts
15-Apr-16 13:08 32.999111 -117.559337 307 7972ft 168kts
15-Apr-16 13:09 33.028754 -117.602667 307 7971ft 168kts
15-Apr-16 13:10 33.057806 -117.646163 307 7971ft 168kts
15-Apr-16 13:11 33.086770 -117.689854 307 8007ft 168kts
15-Apr-16 13:12 33.115484 -117.733977 306 8007ft 167kts
15-Apr-16 13:13 33.144491 -117.778579 306 8006ft 168kts
15-Apr-16 13:14 33.168559 -117.815622 305 8005ft 169kts
15-Apr-16 13:15 33.208414 -117.845285 335 8007ft 180kts
15-Apr-16 13:16 33.256576 -117.863138 335 8008ft 182kts
15-Apr-16 13:17 33.305400 -117.880899 335 8010ft 182kts
15-Apr-16 13:18 33.353675 -117.898397 335 8010ft 182kts
15-Apr-16 13:19 33.402584 -117.916126 335 8008ft 184kts
15-Apr-16 13:20 33.451933 -117.934038 335 8005ft 186kts
15-Apr-16 13:21 33.501583 -117.952093 335 8003ft 186kts
15-Apr-16 13:22 33.551608 -117.970299 335 8001ft 186kts
15-Apr-16 13:23 33.603717 -117.989285 335 8001ft 185kts
15-Apr-16 13:24 33.653063 -118.007285 335 8000ft 185kts
15-Apr-16 13:25 33.702192 -118.025205 335 7990ft 176kts
15-Apr-16 13:26 33.747325 -118.041707 335 7998ft 168kts
15-Apr-16 13:27 33.791614 -118.057639 338 7815ft 166kts
15-Apr-16 13:28 33.834531 -118.069574 351 7218ft 166kts
15-Apr-16 13:29 33.876537 -118.073038 354 6534ft 163kts
15-Apr-16 13:30 33.917961 -118.051393 21 5652ft 166kts
15-Apr-16 13:31 33.960694 -118.053750 351 4797ft 166kts
15-Apr-16 13:32 33.975738 -118.089043 226 4013ft 184kts
15-Apr-16 13:33 33.961048 -118.134152 270 3963ft 176kts
15-Apr-16 13:34 33.957370 -118.183359 267 3490ft 176kts
15-Apr-16 13:35 33.952864 -118.229481 267 2693ft 151kts
15-Apr-16 13:36 33.949915 -118.258855 269 2183ft 119kts
15-Apr-16 13:37 33.945616 -118.301701 269 1497ft 119kts
15-Apr-16 13:38 33.942268 -118.334383 269 952ft 116kts
15-Apr-16 13:39 33.938514 -118.371215 271 368ft 90kts
15-Apr-16 13:40 33.937731 -118.392902 224 131ft 0kts
15-Apr-16 13:41 33.938066 -118.394058 23 131ft 12kts
15-Apr-16 13:42 33.939231 -118.396459 263 131ft 23kts
15-Apr-16 13:43 33.940173 -118.398776 321 131ft 3kts

Navigation Log

Ident Type
Flight plan parsing failed, navigation log unavailable